Time;durP1;ratioP1;P1;durP2;ratioP2;P2;SDS_P1;SDS_P2;PMS_P1;PMS_P2;Temp;Humidity;BMP_temperature;BMP_pressure;BME280_temperature;BME280_humidity;BME280_pressure;Samples;Min_cycle;Max_cycle;Signal;HPM_P1;HPM_P2
2020/12/02 00:02:30;;;;;;;63.83;30.45;;;2.80;99.90;;;;;;5054173;28;20295;-76
2020/12/02 00:04:59;;;;;;;67.80;29.90;;;2.60;99.90;;;;;;5069270;28;20025;-76
2020/12/02 00:07:30;;;;;;;92.00;31.67;;;2.50;99.90;;;;;;5053977;28;20028;-76
2020/12/02 00:09:56;;;;;;;78.18;31.27;;;2.40;99.90;;;;;;5052185;28;20400;-75
2020/12/02 00:12:23;;;;;;;93.32;34.13;;;2.50;99.90;;;;;;5054268;28;20160;-76
2020/12/02 00:14:50;;;;;;;66.78;33.60;;;2.40;99.90;;;;;;5052400;28;20192;-76
2020/12/02 00:17:18;;;;;;;83.43;33.30;;;2.50;99.90;;;;;;5054340;28;20028;-76
2020/12/02 00:19:46;;;;;;;86.90;33.47;;;2.60;99.90;;;;;;5053732;28;20049;-76
2020/12/02 00:22:21;;;;;;;85.20;30.95;;;2.60;99.90;;;;;;5035867;28;20111;-76
2020/12/02 00:24:48;;;;;;;70.40;32.58;;;2.40;99.90;;;;;;5053544;28;20024;-76
2020/12/02 00:27:27;;;;;;;94.88;33.55;;;2.50;99.90;;;;;;5052344;28;20436;-76
2020/12/02 00:29:53;;;;;;;78.60;33.78;;;2.50;99.90;;;;;;5051999;28;20032;-76
2020/12/02 00:32:31;;;;;;;76.45;33.20;;;2.60;99.90;;;;;;5053434;28;20048;-76
2020/12/02 00:34:57;;;;;;;73.25;30.45;;;2.30;99.90;;;;;;5068321;28;20021;-76
2020/12/02 00:37:24;;;;;;;93.85;33.40;;;2.10;99.90;;;;;;5052487;28;20036;-76
2020/12/02 00:39:50;;;;;;;107.55;34.58;;;1.90;99.90;;;;;;5051894;28;20028;-76
2020/12/02 00:42:18;;;;;;;76.10;33.03;;;1.90;99.90;;;;;;5053175;28;20033;-76
2020/12/02 00:44:43;;;;;;;75.95;31.35;;;2.00;99.90;;;;;;5051741;28;20485;-76
2020/12/02 00:47:14;;;;;;;76.47;31.90;;;1.90;99.90;;;;;;5051919;28;20035;-76
2020/12/02 00:49:40;;;;;;;70.93;33.75;;;2.00;99.90;;;;;;5052665;28;20072;-76
2020/12/02 00:52:07;;;;;;;76.32;33.92;;;2.20;99.90;;;;;;5052891;28;20037;-76
2020/12/02 00:54:34;;;;;;;75.70;33.53;;;1.90;99.90;;;;;;5052568;28;20029;-76
2020/12/02 00:57:00;;;;;;;79.22;35.55;;;1.80;99.90;;;;;;5052810;28;20021;-76
2020/12/02 00:59:30;;;;;;;77.05;35.42;;;1.90;99.90;;;;;;5052786;28;20031;-76
2020/12/02 01:02:37;;;;;;;69.55;34.25;;;2.00;99.90;;;;;;5052612;28;20043;-76
2020/12/02 01:05:07;;;;;;;78.25;33.97;;;2.10;99.90;;;;;;5010049;28;20049;-76
2020/12/02 01:07:33;;;;;;;69.93;33.03;;;2.10;99.90;;;;;;5010494;28;20042;-76
2020/12/02 01:09:59;;;;;;;72.25;33.80;;;2.20;99.90;;;;;;5031882;28;20037;-76
2020/12/02 01:12:25;;;;;;;65.53;32.70;;;2.30;99.90;;;;;;5067858;28;20485;-76
2020/12/02 01:14:50;;;;;;;66.97;31.77;;;2.30;99.90;;;;;;5052395;28;20039;-76
2020/12/02 01:17:17;;;;;;;71.82;32.97;;;2.30;99.90;;;;;;5052345;28;20025;-76
2020/12/02 01:19:43;;;;;;;73.72;32.53;;;2.20;99.90;;;;;;5052507;28;20494;-76
2020/12/02 01:22:21;;;;;;;63.45;30.08;;;2.30;99.90;;;;;;5052248;28;20025;-76
2020/12/02 01:25:05;;;;;;;66.45;30.75;;;2.10;99.90;;;;;;5034478;28;20021;-76
2020/12/02 01:27:54;;;;;;;107.32;35.65;;;1.90;99.90;;;;;;5052220;28;20021;-76
2020/12/02 01:30:21;;;;;;;97.03;36.78;;;1.70;99.90;;;;;;5052728;28;20435;-76
2020/12/02 01:32:47;;;;;;;87.55;36.28;;;1.70;99.90;;;;;;5052093;28;20105;-76
2020/12/02 01:35:17;;;;;;;94.65;37.58;;;1.80;99.90;;;;;;5052057;28;20362;-76
2020/12/02 01:37:44;;;;;;;79.55;37.03;;;2.00;99.90;;;;;;5050996;28;20032;-76
2020/12/02 01:40:17;;;;;;;91.13;37.88;;;1.80;99.90;;;;;;5052068;28;20056;-76
2020/12/02 01:42:50;;;;;;;78.05;37.95;;;1.90;99.90;;;;;;5050519;28;20100;-76
2020/12/02 01:45:39;;;;;;;83.30;39.70;;;1.90;99.90;;;;;;5050599;28;20236;-75
2020/12/02 01:48:30;;;;;;;84.55;41.58;;;1.80;99.90;;;;;;5028146;28;20043;-76
2020/12/02 01:51:33;;;;;;;86.03;39.90;;;1.70;99.90;;;;;;5051952;28;20025;-76
2020/12/02 01:54:02;;;;;;;86.68;43.60;;;1.70;99.90;;;;;;5052296;28;20021;-76
2020/12/02 01:56:44;;;;;;;93.80;44.20;;;1.60;99.90;;;;;;5052185;28;20044;-76
2020/12/02 01:59:31;;;;;;;98.88;44.55;;;1.40;99.90;;;;;;5050891;28;20032;-76
2020/12/02 02:02:33;;;;;;;90.13;43.58;;;1.40;99.90;;;;;;5051607;28;20074;-76
2020/12/02 02:05:14;;;;;;;91.13;43.03;;;1.40;99.90;;;;;;5051630;28;20041;-76
2020/12/02 02:07:40;;;;;;;92.07;45.25;;;1.50;99.90;;;;;;5050197;28;20029;-76
2020/12/02 02:10:11;;;;;;;97.68;46.28;;;1.50;99.90;;;;;;5051770;28;20372;-76
2020/12/02 02:12:43;;;;;;;94.28;47.00;;;1.40;99.90;;;;;;5051289;28;20022;-76
2020/12/02 02:15:29;;;;;;;97.68;47.28;;;1.50;99.90;;;;;;5051334;28;20447;-76
2020/12/02 02:17:58;;;;;;;102.85;47.85;;;1.50;99.90;;;;;;5051221;28;20056;-76
2020/12/02 02:20:32;;;;;;;104.65;49.55;;;1.60;99.90;;;;;;5051480;28;20090;-76
2020/12/02 02:22:58;;;;;;;104.63;49.67;;;1.60;99.90;;;;;;5050119;28;20021;-76
2020/12/02 02:25:25;;;;;;;104.30;51.42;;;1.80;99.90;;;;;;5049753;28;20084;-76
2020/12/02 02:27:52;;;;;;;106.78;49.30;;;1.60;99.90;;;;;;5051002;28;20043;-76
2020/12/02 02:30:18;;;;;;;105.20;48.53;;;1.60;99.90;;;;;;5051307;28;20032;-76
2020/12/02 02:32:46;;;;;;;113.93;49.97;;;1.50;99.90;;;;;;5050879;28;20018;-76
2020/12/02 02:35:12;;;;;;;117.22;51.13;;;1.50;99.90;;;;;;5033056;28;20056;-76
2020/12/02 02:37:38;;;;;;;106.20;48.97;;;1.30;99.90;;;;;;5050825;28;20366;-76
2020/12/02 02:40:09;;;;;;;108.43;50.80;;;1.40;99.90;;;;;;5050954;28;20100;-76
2020/12/02 02:42:41;;;;;;;106.68;49.63;;;1.30;99.90;;;;;;5051037;28;20021;-76
2020/12/02 02:45:23;;;;;;;121.05;48.13;;;1.20;99.90;;;;;;5049506;28;20124;-78
2020/12/02 02:47:49;;;;;;;118.07;48.20;;;1.10;99.90;;;;;;5050818;28;20103;-76
2020/12/02 02:50:17;;;;;;;102.10;47.88;;;1.10;99.90;;;;;;5050635;28;20025;-76
2020/12/02 02:52:43;;;;;;;110.22;49.03;;;1.20;99.90;;;;;;5049980;28;20025;-76
2020/12/02 02:55:18;;;;;;;104.38;47.92;;;1.30;99.90;;;;;;5050601;28;20480;-76
2020/12/02 02:57:44;;;;;;;104.60;46.85;;;1.40;99.90;;;;;;5049475;28;20049;-76
2020/12/02 03:00:13;;;;;;;119.88;48.08;;;1.20;99.90;;;;;;5048960;28;20025;-76
2020/12/02 03:02:39;;;;;;;131.70;49.88;;;1.30;99.90;;;;;;5049534;28;20439;-76
2020/12/02 03:05:07;;;;;;;119.97;47.97;;;1.30;99.90;;;;;;5065831;28;20021;-76
2020/12/02 03:07:33;;;;;;;140.13;51.33;;;1.40;99.90;;;;;;5050730;28;20029;-75
2020/12/02 03:10:00;;;;;;;115.57;50.40;;;1.30;99.90;;;;;;5050632;28;20484;-76
2020/12/02 03:12:27;;;;;;;112.18;48.88;;;1.10;99.90;;;;;;5032846;28;20029;-76
2020/12/02 03:14:54;;;;;;;116.55;47.38;;;0.90;99.90;;;;;;5065945;28;20377;-76
2020/12/02 03:17:22;;;;;;;180.30;48.03;;;0.70;99.90;;;;;;5050792;28;20017;-76
2020/12/02 03:19:53;;;;;;;138.23;49.08;;;0.50;99.90;;;;;;5050460;28;20028;-76
2020/12/02 03:22:22;;;;;;;114.22;48.05;;;0.70;99.90;;;;;;5049822;28;20036;-76
2020/12/02 03:24:50;;;;;;;106.88;45.78;;;0.80;99.90;;;;;;5049301;28;20031;-76
2020/12/02 03:27:15;;;;;;;96.22;43.17;;;0.90;99.90;;;;;;5050786;28;20028;-76
2020/12/02 03:29:41;;;;;;;97.82;42.22;;;1.10;99.90;;;;;;5049470;28;20029;-76
2020/12/02 03:32:07;;;;;;;92.25;39.97;;;1.20;99.90;;;;;;5049696;28;20155;-76
2020/12/02 03:34:33;;;;;;;161.07;42.97;;;1.20;99.90;;;;;;5051329;28;20432;-76
2020/12/02 03:36:59;;;;;;;123.13;39.65;;;1.20;99.90;;;;;;5050483;28;20064;-76
2020/12/02 03:39:25;;;;;;;113.57;40.72;;;1.00;99.90;;;;;;5049987;28;20052;-76
2020/12/02 03:41:51;;;;;;;93.60;38.55;;;1.10;99.90;;;;;;5051086;28;20094;-76
2020/12/02 03:44:16;;;;;;;82.22;36.13;;;1.00;99.90;;;;;;5050806;28;20101;-76
2020/12/02 03:46:42;;;;;;;81.70;35.83;;;1.00;99.90;;;;;;5065861;28;20036;-76
2020/12/02 03:49:08;;;;;;;112.20;38.03;;;1.00;99.90;;;;;;5049195;28;20022;-76
2020/12/02 03:51:35;;;;;;;98.25;38.15;;;0.90;99.90;;;;;;5048943;28;20041;-76
2020/12/02 03:54:03;;;;;;;104.43;37.67;;;0.90;99.90;;;;;;5050320;28;20029;-76
2020/12/02 03:56:28;;;;;;;137.40;39.00;;;0.70;99.90;;;;;;5049943;28;20017;-76
2020/12/02 03:58:54;;;;;;;106.78;39.30;;;0.60;99.90;;;;;;5050271;28;20435;-76
2020/12/02 04:01:20;;;;;;;182.55;38.88;;;0.70;99.90;;;;;;5048753;28;20442;-76
2020/12/02 04:03:46;;;;;;;95.72;37.88;;;0.60;99.90;;;;;;5049104;28;20037;-76
2020/12/02 04:06:13;;;;;;;91.07;36.65;;;0.40;99.90;;;;;;5049935;28;20033;-76
2020/12/02 04:08:41;;;;;;;86.28;37.33;;;0.50;99.90;;;;;;5048971;28;20102;-76
2020/12/02 04:11:08;;;;;;;133.02;38.67;;;0.50;99.90;;;;;;5048953;28;20025;-76
2020/12/02 04:13:34;;;;;;;101.72;38.38;;;0.50;99.90;;;;;;5053136;28;20154;-76
2020/12/02 04:16:00;;;;;;;97.15;36.20;;;0.50;99.90;;;;;;5053258;28;20063;-76
2020/12/02 04:18:26;;;;;;;72.38;34.25;;;0.40;99.90;;;;;;5035685;28;20102;-76
2020/12/02 04:20:52;;;;;;;75.80;33.65;;;0.50;99.90;;;;;;5053344;28;20035;-76
2020/12/02 04:23:18;;;;;;;83.00;35.90;;;0.60;99.90;;;;;;5052292;28;20021;-76
2020/12/02 04:25:44;;;;;;;92.15;36.33;;;0.80;99.90;;;;;;5053269;28;20100;-76
2020/12/02 04:28:10;;;;;;;77.47;35.60;;;0.80;99.90;;;;;;5053210;28;20056;-76
2020/12/02 04:30:35;;;;;;;84.60;38.30;;;0.80;99.90;;;;;;5053273;28;20049;-76
2020/12/02 04:33:01;;;;;;;83.15;37.75;;;0.90;99.90;;;;;;5051877;28;20087;-76
2020/12/02 04:35:27;;;;;;;82.88;37.45;;;0.90;99.90;;;;;;5051932;28;20021;-76
2020/12/02 04:37:53;;;;;;;83.10;37.30;;;0.90;99.90;;;;;;5052049;28;20079;-77
2020/12/02 04:40:24;;;;;;;106.95;37.42;;;0.70;99.90;;;;;;5051921;28;20017;-76
2020/12/02 04:42:57;;;;;;;62.70;26.63;;;0.70;99.90;;;;;;5052848;28;20021;-76
2020/12/02 04:45:23;;;;;;;94.30;35.40;;;0.70;99.90;;;;;;5051619;28;20056;-77
2020/12/02 04:47:49;;;;;;;120.05;38.38;;;0.70;99.90;;;;;;5052999;28;20032;-77
2020/12/02 04:50:21;;;;;;;86.55;36.05;;;0.60;99.90;;;;;;5051700;28;20029;-77
2020/12/02 04:53:19;;;;;;;83.50;36.17;;;0.60;99.90;;;;;;5052958;28;20029;-77
2020/12/02 04:55:48;;;;;;;78.93;37.92;;;0.60;99.90;;;;;;5034909;28;20036;-76
2020/12/02 04:58:31;;;;;;;99.60;35.50;;;0.50;99.90;;;;;;5052518;28;20033;-76
2020/12/02 05:01:15;;;;;;;91.22;38.17;;;0.50;99.90;;;;;;5051751;28;20036;-76
2020/12/02 05:03:54;;;;;;;72.25;36.28;;;0.60;99.90;;;;;;5051164;28;20028;-77
2020/12/02 05:06:25;;;;;;;79.35;33.38;;;0.70;99.90;;;;;;5051456;28;20267;-76
2020/12/02 05:08:51;;;;;;;92.25;37.03;;;0.70;99.90;;;;;;5034563;28;20033;-77
2020/12/02 05:11:17;;;;;;;81.82;35.00;;;0.70;99.90;;;;;;5052677;28;20027;-77
2020/12/02 05:14:01;;;;;;;80.68;36.55;;;0.70;99.90;;;;;;5052295;28;20443;-77
2020/12/02 05:16:28;;;;;;;88.00;35.15;;;0.60;99.90;;;;;;5067980;28;20400;-77
2020/12/02 05:19:03;;;;;;;94.30;36.17;;;0.50;99.90;;;;;;5034569;28;20021;-76
2020/12/02 05:21:32;;;;;;;81.88;36.55;;;0.30;99.90;;;;;;5052897;28;20488;-76
2020/12/02 05:24:03;;;;;;;100.97;37.58;;;0.30;99.90;;;;;;5052998;28;20032;-77
2020/12/02 05:26:32;;;;;;;82.10;35.80;;;0.10;99.90;;;;;;5052976;28;20104;-77
2020/12/02 05:28:58;;;;;;;87.97;36.40;;;0.00;99.90;;;;;;5052345;28;20025;-76
2020/12/02 05:31:28;;;;;;;86.18;38.80;;;-0.10;99.90;;;;;;5052391;28;20036;-77
2020/12/02 05:34:11;;;;;;;77.78;36.20;;;-0.20;99.90;;;;;;5050907;28;20507;-76
2020/12/02 05:36:43;;;;;;;87.32;37.15;;;-0.10;99.90;;;;;;5052220;28;20032;-77
2020/12/02 05:39:20;;;;;;;84.55;36.97;;;0.10;99.90;;;;;;5051932;28;20033;-77
2020/12/02 05:41:53;;;;;;;106.35;38.90;;;0.10;99.90;;;;;;5050859;28;20029;-76
2020/12/02 05:44:31;;;;;;;135.98;41.40;;;0.00;99.90;;;;;;5050477;28;20033;-77
2020/12/02 05:47:00;;;;;;;111.80;39.85;;;0.00;99.90;;;;;;5050797;28;20032;-77
2020/12/02 05:49:44;;;;;;;89.72;38.55;;;-0.20;99.90;;;;;;5051735;28;20029;-77
2020/12/02 05:52:22;;;;;;;106.43;40.20;;;-0.10;99.90;;;;;;5066255;22;20094;-75
2020/12/02 05:54:52;;;;;;;108.60;40.38;;;-0.50;99.90;;;;;;5051319;28;20470;-75
2020/12/02 05:57:19;;;;;;;107.05;38.90;;;-0.50;99.90;;;;;;5051770;28;20017;-73
2020/12/02 05:59:50;;;;;;;136.25;41.47;;;-0.30;99.90;;;;;;5051393;28;20033;-75
2020/12/02 06:02:19;;;;;;;104.82;40.83;;;-0.10;99.90;;;;;;5050366;28;20040;-74
2020/12/02 06:04:51;;;;;;;98.68;39.08;;;0.00;99.90;;;;;;5051128;28;20373;-74
2020/12/02 06:07:17;;;;;;;102.00;39.05;;;0.20;99.90;;;;;;5051620;28;20025;-74
2020/12/02 06:09:46;;;;;;;90.15;35.83;;;0.20;99.90;;;;;;5049871;28;20075;-74
2020/12/02 06:12:23;;;;;;;92.45;37.47;;;0.10;99.90;;;;;;5050201;28;20519;-74
2020/12/02 06:14:50;;;;;;;112.03;40.60;;;0.00;99.90;;;;;;5051147;28;20024;-74
2020/12/02 06:17:28;;;;;;;121.00;39.47;;;-0.10;99.90;;;;;;5051250;28;20490;-74
2020/12/02 06:19:54;;;;;;;118.22;40.78;;;-0.10;99.90;;;;;;5051083;28;20061;-74
2020/12/02 06:22:46;;;;;;;103.15;38.72;;;-0.30;99.90;;;;;;5051252;28;20033;-74
2020/12/02 06:25:40;;;;;;;107.05;40.05;;;-0.30;99.90;;;;;;5051043;28;20021;-74
2020/12/02 06:28:08;;;;;;;102.85;40.53;;;-0.30;99.90;;;;;;5051024;28;20036;-74
2020/12/02 06:30:34;;;;;;;109.35;40.53;;;-0.20;99.90;;;;;;5050888;28;20025;-74
2020/12/02 06:33:12;;;;;;;100.75;40.17;;;-0.10;99.90;;;;;;5051156;28;20542;-73
2020/12/02 06:35:38;;;;;;;125.43;40.22;;;0.00;99.90;;;;;;5050091;28;20026;-74
2020/12/02 06:38:28;;;;;;;121.00;40.03;;;-0.10;99.90;;;;;;5049643;28;20033;-74
2020/12/02 06:40:57;;;;;;;110.68;40.75;;;-0.20;99.90;;;;;;5048017;28;20025;-74
2020/12/02 06:43:24;;;;;;;132.13;41.40;;;-0.40;99.90;;;;;;5050859;28;20029;-74
2020/12/02 06:45:50;;;;;;;111.90;41.35;;;-0.40;99.90;;;;;;5050368;28;20017;-74
2020/12/02 06:48:38;;;;;;;113.28;43.10;;;-0.40;99.90;;;;;;5051155;28;20040;-73
2020/12/02 06:51:10;;;;;;;101.43;41.72;;;-0.50;99.90;;;;;;5054124;28;20611;-74
2020/12/02 06:53:36;;;;;;;100.50;42.55;;;-0.30;99.90;;;;;;5068212;28;20059;-74
2020/12/02 06:56:03;;;;;;;108.22;41.13;;;-0.30;99.90;;;;;;5050367;28;20052;-73
2020/12/02 06:58:29;;;;;;;105.68;40.15;;;-0.20;99.90;;;;;;5056658;28;20021;-74
2020/12/02 07:00:58;;;;;;;100.38;38.72;;;-0.10;99.90;;;;;;5069317;28;20376;-74
2020/12/02 07:03:40;;;;;;;96.05;38.15;;;-0.10;99.90;;;;;;5070438;28;20124;-74
2020/12/02 07:06:08;;;;;;;106.25;39.28;;;-0.10;99.90;;;;;;5067609;28;20094;-74
2020/12/02 07:08:36;;;;;;;103.97;40.53;;;-0.30;99.90;;;;;;5050229;28;20035;-74
2020/12/02 07:11:08;;;;;;;107.38;39.47;;;-0.30;99.90;;;;;;5050656;28;20078;-74
2020/12/02 07:13:38;;;;;;;86.57;30.45;;;-0.30;99.90;;;;;;5048657;28;20276;-74
2020/12/02 07:16:22;;;;;;;85.53;35.60;;;-0.30;99.90;;;;;;5063620;28;20042;-74
2020/12/02 07:19:03;;;;;;;96.85;38.53;;;-0.30;99.90;;;;;;5058297;28;20048;-74
2020/12/02 07:21:35;;;;;;;111.78;38.70;;;-0.10;99.90;;;;;;5051286;28;20084;-74
2020/12/02 07:24:02;;;;;;;97.78;37.20;;;-0.20;99.90;;;;;;5030594;28;20032;-74
2020/12/02 07:26:28;;;;;;;106.68;40.58;;;-0.20;99.90;;;;;;5030586;28;20044;-74
2020/12/02 07:28:59;;;;;;;100.95;39.35;;;-0.30;99.90;;;;;;5030705;28;20021;-75
2020/12/02 07:31:28;;;;;;;106.50;39.30;;;-0.30;99.90;;;;;;5030799;28;20113;-74
2020/12/02 07:34:03;;;;;;;103.13;38.63;;;-0.40;99.90;;;;;;5041865;28;20071;-74
2020/12/02 07:36:38;;;;;;;103.70;41.35;;;-0.40;99.90;;;;;;5050318;28;20028;-74
2020/12/02 07:39:14;;;;;;;98.07;38.90;;;-0.30;99.90;;;;;;5048400;28;20029;-74
2020/12/02 07:41:47;;;;;;;218.85;105.28;;;-0.40;99.90;;;;;;5050258;28;20456;-75
2020/12/02 07:44:13;;;;;;;135.18;58.53;;;-0.20;99.90;;;;;;5049489;28;20052;-74
2020/12/02 07:46:39;;;;;;;92.15;38.08;;;-0.10;99.90;;;;;;5050492;28;20028;-74
2020/12/02 07:49:06;;;;;;;93.65;38.15;;;-0.20;99.90;;;;;;5053720;28;20029;-74
2020/12/02 07:51:38;;;;;;;98.68;40.20;;;-0.30;99.90;;;;;;5052791;28;20455;-74
2020/12/02 07:54:16;;;;;;;91.65;37.20;;;-0.30;99.90;;;;;;5052964;28;20071;-74
2020/12/02 07:56:45;;;;;;;119.05;41.85;;;-0.30;99.90;;;;;;5052544;28;20074;-74
2020/12/02 07:59:17;;;;;;;92.85;39.58;;;-0.20;99.90;;;;;;5052755;28;20021;-74
2020/12/02 08:01:58;;;;;;;;;;;0.00;99.90;;;;;;5053342;28;20104;-74
2020/12/02 08:04:24;;;;;;;89.25;38.17;;;-0.10;99.90;;;;;;5048944;28;19911;-74
2020/12/02 08:06:58;;;;;;;95.68;38.67;;;-0.10;99.90;;;;;;5051005;28;20025;-74
2020/12/02 08:09:24;;;;;;;102.70;38.47;;;-0.10;99.90;;;;;;5035927;28;20021;-75
2020/12/02 08:11:54;;;;;;;110.65;46.85;;;-0.30;99.90;;;;;;5053030;28;20029;-75
2020/12/02 08:14:28;;;;;;;105.47;42.85;;;-0.20;99.90;;;;;;5051024;28;20254;-74
2020/12/02 08:17:15;;;;;;;95.13;39.13;;;-0.20;99.90;;;;;;5051673;28;20021;-74
2020/12/02 08:19:45;;;;;;;107.57;47.40;;;-0.20;99.90;;;;;;5029117;28;20038;-74
2020/12/02 08:22:43;;;;;;;103.95;38.88;;;-0.20;99.90;;;;;;5032481;28;20044;-74
2020/12/02 08:25:21;;;;;;;105.47;38.30;;;-0.20;99.90;;;;;;5032219;28;20025;-75
2020/12/02 08:27:49;;;;;;;96.63;39.25;;;-0.20;99.90;;;;;;5029892;28;20049;-74
2020/12/02 08:30:20;;;;;;;116.53;38.80;;;-0.10;99.90;;;;;;5031691;28;20076;-74
2020/12/02 08:33:20;;;;;;;105.32;39.33;;;-0.20;99.90;;;;;;5030818;28;20458;-74
2020/12/02 08:35:48;;;;;;;103.07;40.60;;;-0.10;99.90;;;;;;5039045;28;20044;-75
2020/12/02 08:38:37;;;;;;;105.72;44.85;;;0.00;99.90;;;;;;5027092;28;20377;-76
2020/12/02 08:41:04;;;;;;;107.85;45.70;;;-0.20;99.90;;;;;;5028918;28;20100;-76
2020/12/02 08:43:30;;;;;;;100.72;38.83;;;-0.10;99.90;;;;;;5031709;28;20076;-76
2020/12/02 08:46:01;;;;;;;105.07;40.45;;;-0.10;99.90;;;;;;5031716;28;20555;-76
2020/12/02 08:48:27;;;;;;;120.53;47.70;;;-0.10;99.90;;;;;;5029861;28;20417;-74
2020/12/02 08:50:53;;;;;;;116.57;42.50;;;0.00;99.90;;;;;;5031754;28;20025;-74
2020/12/02 08:53:27;;;;;;;105.75;42.80;;;0.00;99.90;;;;;;5030059;28;20069;-74
2020/12/02 08:55:54;;;;;;;121.95;43.22;;;0.00;99.90;;;;;;5031447;28;20021;-74
2020/12/02 08:58:21;;;;;;;119.35;42.35;;;0.00;99.90;;;;;;5030512;28;20476;-75
2020/12/02 09:00:46;;;;;;;135.52;44.47;;;0.10;99.90;;;;;;5010555;28;20105;-74
2020/12/02 09:03:12;;;;;;;109.35;42.80;;;0.10;99.90;;;;;;5030146;28;20136;-74
2020/12/02 09:05:38;;;;;;;118.30;41.97;;;0.20;99.90;;;;;;5031344;28;20096;-74
2020/12/02 09:08:04;;;;;;;122.22;44.63;;;0.10;99.90;;;;;;5031825;28;20022;-74
2020/12/02 09:10:30;;;;;;;115.45;40.55;;;0.00;99.90;;;;;;5031259;28;20046;-75
2020/12/02 09:12:56;;;;;;;119.15;43.40;;;-0.20;99.90;;;;;;5031995;28;20071;-74
2020/12/02 09:15:22;;;;;;;130.75;46.13;;;0.00;99.90;;;;;;5046701;28;20022;-74
2020/12/02 09:17:49;;;;;;;128.35;44.72;;;0.00;99.90;;;;;;5031774;28;20029;-74
2020/12/02 09:20:16;;;;;;;109.78;41.78;;;0.00;99.90;;;;;;5030882;28;20044;-75
2020/12/02 09:22:42;;;;;;;122.90;44.60;;;0.00;99.90;;;;;;5031551;28;20472;-74
2020/12/02 09:25:07;;;;;;;110.22;45.28;;;-0.10;99.90;;;;;;5031210;28;20025;-74
2020/12/02 09:27:34;;;;;;;126.32;44.08;;;-0.10;99.90;;;;;;5031066;28;20313;-75
2020/12/02 09:30:00;;;;;;;122.22;43.65;;;-0.10;99.90;;;;;;5029862;28;20104;-74
2020/12/02 09:32:26;;;;;;;115.25;42.92;;;-0.10;99.90;;;;;;5030416;28;20437;-74
2020/12/02 09:34:52;;;;;;;117.88;45.17;;;-0.30;99.90;;;;;;5030719;28;20022;-74
2020/12/02 09:37:18;;;;;;;128.57;47.60;;;-0.10;99.90;;;;;;5026070;28;20033;-74
2020/12/02 09:39:44;;;;;;;181.98;63.58;;;-0.20;99.90;;;;;;5031088;28;20045;-74
2020/12/02 09:42:16;;;;;;;138.75;48.80;;;-0.10;99.90;;;;;;5031335;28;20441;-74
2020/12/02 09:45:00;;;;;;;110.28;44.30;;;0.20;99.90;;;;;;5030253;28;20036;-74
2020/12/02 09:47:26;;;;;;;114.43;44.45;;;0.20;99.90;;;;;;5030701;28;20113;-74
2020/12/02 09:49:52;;;;;;;154.88;42.83;;;0.20;99.90;;;;;;5030079;28;20088;-74
2020/12/02 09:52:43;;;;;;;124.03;46.33;;;0.10;99.90;;;;;;5030297;28;20033;-74
2020/12/02 09:55:24;;;;;;;118.63;46.07;;;0.00;99.90;;;;;;5028194;28;20021;-74
2020/12/02 09:57:51;;;;;;;112.97;44.55;;;0.00;99.90;;;;;;5030413;28;20420;-74
2020/12/02 10:00:22;;;;;;;127.25;43.45;;;0.10;99.90;;;;;;5029981;28;20032;-74
2020/12/02 10:02:59;;;;;;;115.53;45.10;;;0.00;99.90;;;;;;5030198;28;20017;-74
2020/12/02 10:05:43;;;;;;;128.43;49.30;;;0.10;99.90;;;;;;5029810;28;20536;-74
2020/12/02 10:08:47;;;;;;;141.13;50.38;;;0.10;99.90;;;;;;5029803;28;20033;-74
2020/12/02 10:11:16;;;;;;;165.55;63.00;;;0.00;99.90;;;;;;5029246;28;20032;-74
2020/12/02 10:14:25;;;;;;;138.60;55.35;;;-0.10;99.90;;;;;;5029779;28;20037;-74
2020/12/02 10:17:15;;;;;;;122.47;49.60;;;0.00;99.90;;;;;;5028931;28;20472;-75
2020/12/02 10:19:47;;;;;;;121.22;46.50;;;0.20;99.90;;;;;;5028370;28;20104;-75
2020/12/02 10:22:22;;;;;;;116.30;44.05;;;0.30;99.90;;;;;;5044754;28;20033;-75
2020/12/02 10:24:59;;;;;;;129.50;45.38;;;0.30;99.90;;;;;;5029663;28;20053;-74
2020/12/02 10:27:45;;;;;;;116.75;46.42;;;0.10;99.90;;;;;;5029498;28;20485;-74
2020/12/02 10:30:15;;;;;;;120.68;47.45;;;0.20;99.90;;;;;;5027628;28;20433;-74
2020/12/02 10:33:06;;;;;;;101.95;43.72;;;0.10;99.90;;;;;;5029667;28;20018;-75
2020/12/02 10:35:35;;;;;;;106.03;42.25;;;0.20;99.90;;;;;;5029049;28;20038;-74
2020/12/02 10:38:06;;;;;;;109.97;43.15;;;0.10;99.90;;;;;;5029914;28;20108;-75
2020/12/02 10:40:40;;;;;;;108.35;43.20;;;0.10;99.90;;;;;;5027996;28;20098;-74
2020/12/02 10:43:29;;;;;;;104.32;42.97;;;0.20;99.90;;;;;;5029680;28;20074;-75
2020/12/02 10:45:59;;;;;;;107.05;44.67;;;0.20;99.90;;;;;;5028931;28;20040;-75
2020/12/02 10:48:44;;;;;;;101.93;41.60;;;0.10;99.90;;;;;;5029455;28;20021;-75
2020/12/02 10:51:12;;;;;;;105.68;42.05;;;0.10;99.90;;;;;;5026817;28;20025;-75
2020/12/02 10:53:40;;;;;;;102.75;39.75;;;0.20;99.90;;;;;;5029739;28;20078;-74
2020/12/02 10:56:08;;;;;;;106.47;40.95;;;0.00;99.90;;;;;;5027722;28;20500;-75
2020/12/02 10:58:34;;;;;;;97.80;39.13;;;0.00;99.90;;;;;;5029790;28;20036;-75
2020/12/02 11:01:03;;;;;;;106.28;42.45;;;0.00;99.90;;;;;;5029434;28;20025;-75
2020/12/02 11:03:31;;;;;;;102.28;41.70;;;0.10;99.90;;;;;;5028850;28;20057;-74
2020/12/02 11:06:14;;;;;;;104.93;40.78;;;0.10;99.90;;;;;;5028844;28;20033;-75
2020/12/02 11:09:14;;;;;;;85.80;38.08;;;0.10;99.90;;;;;;5026706;28;20029;-74
2020/12/02 11:12:25;;;;;;;101.65;40.95;;;0.20;99.90;;;;;;5029602;28;20022;-74
2020/12/02 11:15:10;;;;;;;89.70;38.50;;;0.30;99.90;;;;;;5016232;28;20444;-72
2020/12/02 11:17:45;;;;;;;96.65;41.40;;;0.10;99.90;;;;;;5029147;28;20022;-75
2020/12/02 11:20:19;;;;;;;86.65;37.80;;;0.20;99.90;;;;;;5029203;28;20033;-75
2020/12/02 11:23:03;;;;;;;89.68;34.97;;;0.10;99.90;;;;;;5031717;28;20564;-75
2020/12/02 11:26:01;;;;;;;91.32;38.38;;;0.10;99.90;;;;;;5031810;28;20304;-74
2020/12/02 11:28:27;;;;;;;79.32;35.17;;;0.10;99.90;;;;;;5032462;28;20136;-74
2020/12/02 11:31:09;;;;;;;86.20;34.95;;;0.10;99.90;;;;;;5034109;28;20325;-74
2020/12/02 11:33:37;;;;;;;;;;;0.20;99.90;;;;;;5034240;28;20076;-74
2020/12/02 11:36:09;;;;;;;78.80;34.92;;;0.30;99.90;;;;;;5031906;28;20379;-75
2020/12/02 11:38:40;;;;;;;91.78;37.45;;;0.40;99.90;;;;;;5033543;28;20037;-75
2020/12/02 11:41:58;;;;;;;89.68;37.22;;;0.40;99.90;;;;;;5027789;28;20082;-74
2020/12/02 11:44:29;;;;;;;82.88;34.47;;;0.50;99.90;;;;;;5009996;28;20038;-72
2020/12/02 11:47:06;;;;;;;81.53;35.78;;;0.30;99.90;;;;;;5028842;28;20113;-74
2020/12/02 11:49:37;;;;;;;87.30;36.03;;;0.20;99.90;;;;;;5032573;28;20034;-74
2020/12/02 11:52:17;;;;;;;82.82;36.22;;;0.20;99.90;;;;;;5032504;28;20044;-74
2020/12/02 11:54:43;;;;;;;85.32;38.72;;;0.30;99.90;;;;;;5029112;28;20104;-74
2020/12/02 11:57:11;;;;;;;83.45;37.00;;;0.40;99.90;;;;;;5032491;28;20096;-74
2020/12/02 11:59:37;;;;;;;81.57;37.05;;;0.50;99.90;;;;;;5031030;28;20021;-74
2020/12/02 12:02:09;;;;;;;76.10;33.90;;;0.60;99.90;;;;;;5032321;28;20104;-73
2020/12/02 12:04:35;;;;;;;80.22;35.85;;;0.50;99.90;;;;;;5031916;28;20025;-74
2020/12/02 12:07:32;;;;;;;74.60;33.80;;;0.50;99.90;;;;;;5032426;28;20041;-74
2020/12/02 12:10:02;;;;;;;132.32;56.15;;;0.40;99.90;;;;;;5030417;28;20025;-74
2020/12/02 12:12:43;;;;;;;109.68;48.17;;;0.40;99.90;;;;;;5031948;28;20033;-74
2020/12/02 12:15:17;;;;;;;73.78;34.92;;;0.40;99.90;;;;;;5028603;28;20029;-74
2020/12/02 12:17:47;;;;;;;75.55;33.33;;;0.40;99.90;;;;;;5032848;28;20025;-74
2020/12/02 12:20:18;;;;;;;77.38;35.28;;;0.30;99.90;;;;;;5031897;28;20030;-74
2020/12/02 12:22:49;;;;;;;78.40;36.70;;;0.40;99.90;;;;;;5028655;28;20434;-74
2020/12/02 12:25:18;;;;;;;76.95;34.20;;;0.50;99.90;;;;;;5031400;28;20029;-74
2020/12/02 12:27:45;;;;;;;90.20;40.42;;;0.50;99.90;;;;;;5030241;28;20385;-74
2020/12/02 12:30:11;;;;;;;79.65;36.75;;;0.50;99.90;;;;;;5031881;28;20116;-74
2020/12/02 12:32:43;;;;;;;94.88;41.47;;;0.70;99.90;;;;;;5030801;28;20499;-74
2020/12/02 12:35:23;;;;;;;94.05;40.72;;;0.60;99.90;;;;;;5046780;28;20022;-74
2020/12/02 12:38:04;;;;;;;93.47;40.42;;;0.60;99.90;;;;;;5031635;28;20057;-74
2020/12/02 12:40:34;;;;;;;97.35;39.92;;;0.50;99.90;;;;;;5031556;28;20025;-74
2020/12/02 12:43:05;;;;;;;103.00;44.63;;;0.50;99.90;;;;;;5027137;28;20389;-74
2020/12/02 12:45:44;;;;;;;110.40;45.13;;;0.40;99.90;;;;;;5028535;28;20489;-74
2020/12/02 12:48:16;;;;;;;215.10;86.97;;;0.30;99.90;;;;;;5031719;28;20113;-74
2020/12/02 12:50:44;;;;;;;108.63;48.15;;;0.20;99.90;;;;;;5029136;28;20083;-74
2020/12/02 12:53:12;;;;;;;101.05;42.75;;;0.10;99.90;;;;;;5031792;28;20382;-74
2020/12/02 12:55:38;;;;;;;103.10;42.15;;;0.10;99.90;;;;;;5029493;28;20485;-74
2020/12/02 12:58:12;;;;;;;101.43;45.35;;;0.10;99.90;;;;;;5031874;28;20441;-74